Terminal Aerodrome Forecast
Issued by NWS Cleveland, OH

Home | Current Version | Previous Version | Text Only | Print | Product List | Glossary On
Versions: 1 2 3 4 5 6 7 8 9 10 11 12 13 14 15 16 17 18 19 20 21 22 23 24 25 26 27 28 29 30 31 32 33 34 35 36
000
FTUS41 KCLE 230900 AAB
TAFYNG
TAF AMD
KYNG 230958Z 2310/2406 VRB03KT 5SM BR SCT060
     FM231100 07002KT 2SM BR SCT003
      TEMPO 2311/2313 3/4SM BR BKN003
     FM231430 06004KT P6SM BKN020
     FM231800 04006KT P6SM BKN035
     FM240100 06004KT P6SM SCT040
     FM240500 07004KT 5SM BR SCT040=

USA.gov is the U.S. government's official web portal to all federal, state and local government web resources and services.